sensor_id;sensor_type;location;lat;lon;timestamp;pressure;altitude;pressure_sealevel;temperature;humidity
11678;BME280;5895;41.950;24.372;2023-02-18T00:01:31;87437.03;;;0.65;54.58
11678;BME280;5895;41.950;24.372;2023-02-18T00:03:59;87429.03;;;0.60;54.43
11678;BME280;5895;41.950;24.372;2023-02-18T00:06:29;87430.91;;;0.49;55.37
11678;BME280;5895;41.950;24.372;2023-02-18T00:08:58;87436.03;;;0.49;54.78
11678;BME280;5895;41.950;24.372;2023-02-18T00:11:28;87430.56;;;0.44;55.35
11678;BME280;5895;41.950;24.372;2023-02-18T00:13:56;87435.66;;;0.36;54.95
11678;BME280;5895;41.950;24.372;2023-02-18T00:16:24;87425.75;;;0.33;54.57
11678;BME280;5895;41.950;24.372;2023-02-18T00:18:54;87428.13;;;0.26;55.52
11678;BME280;5895;41.950;24.372;2023-02-18T00:21:21;87431.28;;;0.20;54.44
11678;BME280;5895;41.950;24.372;2023-02-18T00:23:50;87420.75;;;0.15;55.33
11678;BME280;5895;41.950;24.372;2023-02-18T00:26:18;87425.22;;;0.13;55.43
11678;BME280;5895;41.950;24.372;2023-02-18T00:28:46;87422.81;;;0.12;55.29
11678;BME280;5895;41.950;24.372;2023-02-18T00:31:16;87422.66;;;0.13;55.71
11678;BME280;5895;41.950;24.372;2023-02-18T00:33:44;87420.25;;;0.12;55.03
11678;BME280;5895;41.950;24.372;2023-02-18T00:36:14;87409.41;;;0.10;55.86
11678;BME280;5895;41.950;24.372;2023-02-18T00:38:43;87414.81;;;0.07;55.85
11678;BME280;5895;41.950;24.372;2023-02-18T00:41:13;87412.41;;;0.05;56.40
11678;BME280;5895;41.950;24.372;2023-02-18T00:43:41;87415.13;;;0.04;55.46
11678;BME280;5895;41.950;24.372;2023-02-18T00:46:09;87417.03;;;0.02;55.69
11678;BME280;5895;41.950;24.372;2023-02-18T00:48:36;87402.69;;;0.01;55.55
11678;BME280;5895;41.950;24.372;2023-02-18T00:51:04;87392.13;;;-0.05;55.24
11678;BME280;5895;41.950;24.372;2023-02-18T00:53:32;87390.22;;;-0.03;55.58
11678;BME280;5895;41.950;24.372;2023-02-18T00:56:00;87397.22;;;-0.05;55.67
11678;BME280;5895;41.950;24.372;2023-02-18T00:58:29;87389.41;;;-0.03;56.10
11678;BME280;5895;41.950;24.372;2023-02-18T01:00:56;87388.63;;;-0.04;55.98
11678;BME280;5895;41.950;24.372;2023-02-18T01:03:23;87388.63;;;-0.04;55.31
11678;BME280;5895;41.950;24.372;2023-02-18T01:05:51;87380.03;;;-0.03;55.71
11678;BME280;5895;41.950;24.372;2023-02-18T01:08:19;87369.81;;;-0.03;55.91
11678;BME280;5895;41.950;24.372;2023-02-18T01:10:49;87371.41;;;-0.02;55.56
11678;BME280;5895;41.950;24.372;2023-02-18T01:13:18;87363.47;;;0.02;54.88
11678;BME280;5895;41.950;24.372;2023-02-18T01:15:47;87352.59;;;-0.01;55.28
11678;BME280;5895;41.950;24.372;2023-02-18T01:18:14;87354.66;;;-0.04;55.52
11678;BME280;5895;41.950;24.372;2023-02-18T01:20:42;87347.63;;;-0.10;55.27
11678;BME280;5895;41.950;24.372;2023-02-18T01:23:10;87346.34;;;-0.06;55.05
11678;BME280;5895;41.950;24.372;2023-02-18T01:25:38;87337.63;;;-0.04;55.20
11678;BME280;5895;41.950;24.372;2023-02-18T01:28:07;87336.31;;;-0.08;55.00
11678;BME280;5895;41.950;24.372;2023-02-18T01:30:34;87341.41;;;-0.08;55.06
11678;BME280;5895;41.950;24.372;2023-02-18T01:33:03;87334.09;;;-0.11;55.96
11678;BME280;5895;41.950;24.372;2023-02-18T01:35:31;87332.16;;;-0.17;55.64
11678;BME280;5895;41.950;24.372;2023-02-18T01:37:58;87333.41;;;-0.21;55.04
11678;BME280;5895;41.950;24.372;2023-02-18T01:40:27;87331.16;;;-0.24;55.98
11678;BME280;5895;41.950;24.372;2023-02-18T01:42:54;87332.44;;;-0.28;55.10
11678;BME280;5895;41.950;24.372;2023-02-18T01:45:50;87327.59;;;-0.39;58.01
11678;BME280;5895;41.950;24.372;2023-02-18T01:48:20;87322.78;;;-0.42;55.74
11678;BME280;5895;41.950;24.372;2023-02-18T01:50:52;87319.63;;;-0.44;55.76
11678;BME280;5895;41.950;24.372;2023-02-18T01:53:22;87316.41;;;-0.46;55.84
11678;BME280;5895;41.950;24.372;2023-02-18T01:55:52;87312.59;;;-0.42;55.52
11678;BME280;5895;41.950;24.372;2023-02-18T01:58:20;87305.59;;;-0.40;56.08
11678;BME280;5895;41.950;24.372;2023-02-18T02:00:47;87302.75;;;-0.37;55.48
11678;BME280;5895;41.950;24.372;2023-02-18T02:03:14;87307.84;;;-0.37;55.83
11678;BME280;5895;41.950;24.372;2023-02-18T02:05:43;87298.28;;;-0.35;55.93
11678;BME280;5895;41.950;24.372;2023-02-18T02:08:10;87313.28;;;-0.32;55.96
11678;BME280;5895;41.950;24.372;2023-02-18T02:10:46;87310.41;;;-0.37;56.57
11678;BME280;5895;41.950;24.372;2023-02-18T02:13:21;87311.66;;;-0.41;56.84
11678;BME280;5895;41.950;24.372;2023-02-18T02:15:56;87323.09;;;-0.45;56.30
11678;BME280;5895;41.950;24.372;2023-02-18T02:18:49;87307.50;;;-0.42;58.61
11678;BME280;5895;41.950;24.372;2023-02-18T02:21:57;87312.31;;;-0.39;59.85
11678;BME280;5895;41.950;24.372;2023-02-18T02:24:54;87314.84;;;-0.39;58.29
11678;BME280;5895;41.950;24.372;2023-02-18T02:27:28;87310.69;;;-0.40;56.43
11678;BME280;5895;41.950;24.372;2023-02-18T02:30:17;87307.22;;;-0.39;57.98
11678;BME280;5895;41.950;24.372;2023-02-18T02:35:51;87314.69;;;-0.38;57.34
11678;BME280;5895;41.950;24.372;2023-02-18T02:38:24;87308.66;;;-0.37;57.03
11678;BME280;5895;41.950;24.372;2023-02-18T02:40:59;87310.06;;;-0.34;56.40
11678;BME280;5895;41.950;24.372;2023-02-18T02:43:42;87315.16;;;-0.34;57.06
11678;BME280;5895;41.950;24.372;2023-02-18T02:46:17;87315.84;;;-0.32;56.89
11678;BME280;5895;41.950;24.372;2023-02-18T02:48:49;87318.06;;;-0.29;56.53
11678;BME280;5895;41.950;24.372;2023-02-18T02:51:27;87321.28;;;-0.27;56.99
11678;BME280;5895;41.950;24.372;2023-02-18T02:54:08;87321.56;;;-0.30;58.55
11678;BME280;5895;41.950;24.372;2023-02-18T02:56:36;87321.91;;;-0.33;55.47
11678;BME280;5895;41.950;24.372;2023-02-18T02:59:06;87319.63;;;-0.36;56.23
11678;BME280;5895;41.950;24.372;2023-02-18T03:01:43;87325.69;;;-0.37;57.25
11678;BME280;5895;41.950;24.372;2023-02-18T03:04:28;87315.31;;;-0.44;57.50
11678;BME280;5895;41.950;24.372;2023-02-18T03:07:10;87321.50;;;-0.46;58.13
11678;BME280;5895;41.950;24.372;2023-02-18T03:09:54;87314.81;;;-0.47;58.59
11678;BME280;5895;41.950;24.372;2023-02-18T03:12:32;87313.81;;;-0.55;56.81
11678;BME280;5895;41.950;24.372;2023-02-18T03:15:05;87313.03;;;-0.55;56.26
11678;BME280;5895;41.950;24.372;2023-02-18T03:17:36;87316.03;;;-0.60;56.23
11678;BME280;5895;41.950;24.372;2023-02-18T03:20:09;87305.84;;;-0.60;56.44
11678;BME280;5895;41.950;24.372;2023-02-18T03:22:41;87328.41;;;-0.65;57.30
11678;BME280;5895;41.950;24.372;2023-02-18T03:25:10;87318.84;;;-0.71;56.59
11678;BME280;5895;41.950;24.372;2023-02-18T03:27:42;87312.78;;;-0.70;57.53
11678;BME280;5895;41.950;24.372;2023-02-18T03:30:14;87302.91;;;-0.73;57.38
11678;BME280;5895;41.950;24.372;2023-02-18T03:32:42;87308.44;;;-0.77;56.64
11678;BME280;5895;41.950;24.372;2023-02-18T03:35:13;87312.75;;;-0.78;57.11
11678;BME280;5895;41.950;24.372;2023-02-18T03:37:47;87315.44;;;-0.80;58.53
11678;BME280;5895;41.950;24.372;2023-02-18T03:40:17;87321.28;;;-0.87;56.27
11678;BME280;5895;41.950;24.372;2023-02-18T03:42:44;87308.84;;;-0.90;56.20
11678;BME280;5895;41.950;24.372;2023-02-18T03:45:11;87304.06;;;-0.93;57.11
11678;BME280;5895;41.950;24.372;2023-02-18T03:47:39;87301.50;;;-0.93;56.88
11678;BME280;5895;41.950;24.372;2023-02-18T03:50:07;87304.69;;;-0.91;56.92
11678;BME280;5895;41.950;24.372;2023-02-18T03:52:34;87298.66;;;-0.90;56.88
11678;BME280;5895;41.950;24.372;2023-02-18T03:55:04;87298.38;;;-0.87;58.13
11678;BME280;5895;41.950;24.372;2023-02-18T03:57:32;87306.63;;;-0.85;57.08
11678;BME280;5895;41.950;24.372;2023-02-18T03:59:59;87315.06;;;-0.85;57.23
11678;BME280;5895;41.950;24.372;2023-02-18T04:02:26;87313.47;;;-0.86;57.20
11678;BME280;5895;41.950;24.372;2023-02-18T04:04:53;87303.16;;;-0.84;57.53
11678;BME280;5895;41.950;24.372;2023-02-18T04:07:20;87310.66;;;-0.83;57.15
11678;BME280;5895;41.950;24.372;2023-02-18T04:09:48;87315.84;;;-0.92;56.69
11678;BME280;5895;41.950;24.372;2023-02-18T04:12:16;87322.84;;;-0.94;57.78
11678;BME280;5895;41.950;24.372;2023-02-18T04:14:43;87314.53;;;-0.96;57.19
11678;BME280;5895;41.950;24.372;2023-02-18T04:17:11;87320.38;;;-1.04;56.78
11678;BME280;5895;41.950;24.372;2023-02-18T04:19:38;87327.22;;;-1.04;57.51
11678;BME280;5895;41.950;24.372;2023-02-18T04:22:05;87335.50;;;-1.02;57.56
11678;BME280;5895;41.950;24.372;2023-02-18T04:24:32;87335.50;;;-1.02;57.91
11678;BME280;5895;41.950;24.372;2023-02-18T04:26:59;87331.22;;;-1.02;58.38
11678;BME280;5895;41.950;24.372;2023-02-18T04:29:28;87343.50;;;-0.97;58.57
11678;BME280;5895;41.950;24.372;2023-02-18T04:31:55;87347.63;;;-0.96;57.89
11678;BME280;5895;41.950;24.372;2023-02-18T04:34:22;87349.91;;;-0.93;57.59
11678;BME280;5895;41.950;24.372;2023-02-18T04:36:49;87357.22;;;-0.90;57.63
11678;BME280;5895;41.950;24.372;2023-02-18T04:39:16;87357.56;;;-0.85;57.85
11678;BME280;5895;41.950;24.372;2023-02-18T04:41:43;87354.91;;;-0.84;57.86
11678;BME280;5895;41.950;24.372;2023-02-18T04:44:10;87347.91;;;-0.82;57.45
11678;BME280;5895;41.950;24.372;2023-02-18T04:46:39;87353.00;;;-0.82;58.55
11678;BME280;5895;41.950;24.372;2023-02-18T04:49:06;87354.31;;;-0.77;58.09
11678;BME280;5895;41.950;24.372;2023-02-18T04:51:33;87345.56;;;-0.75;57.82
11678;BME280;5895;41.950;24.372;2023-02-18T04:54:02;87356.09;;;-0.70;57.84
11678;BME280;5895;41.950;24.372;2023-02-18T04:56:29;87344.94;;;-0.69;58.33
11678;BME280;5895;41.950;24.372;2023-02-18T04:58:56;87346.53;;;-0.68;58.49
11678;BME280;5895;41.950;24.372;2023-02-18T05:01:23;87359.94;;;-0.66;58.05
11678;BME280;5895;41.950;24.372;2023-02-18T05:03:52;87364.97;;;-0.74;58.61
11678;BME280;5895;41.950;24.372;2023-02-18T05:06:19;87357.50;;;-0.75;58.01
11678;BME280;5895;41.950;24.372;2023-02-18T05:08:46;87348.25;;;-0.76;58.62
11678;BME280;5895;41.950;24.372;2023-02-18T05:11:13;87348.53;;;-0.80;58.71
11678;BME280;5895;41.950;24.372;2023-02-18T05:13:40;87354.09;;;-0.84;58.30
11678;BME280;5895;41.950;24.372;2023-02-18T05:16:08;87350.59;;;-0.83;58.69
11678;BME280;5895;41.950;24.372;2023-02-18T05:18:35;87357.56;;;-0.85;58.89
11678;BME280;5895;41.950;24.372;2023-02-18T05:21:04;87363.28;;;-0.91;59.27
11678;BME280;5895;41.950;24.372;2023-02-18T05:23:31;87355.00;;;-0.93;59.12
11678;BME280;5895;41.950;24.372;2023-02-18T05:25:58;87366.06;;;-1.02;58.59
11678;BME280;5895;41.950;24.372;2023-02-18T05:28:25;87360.16;;;-1.03;58.87
11678;BME280;5895;41.950;24.372;2023-02-18T05:30:52;87365.41;;;-1.04;58.44
11678;BME280;5895;41.950;24.372;2023-02-18T05:33:19;87357.84;;;-1.14;58.10
11678;BME280;5895;41.950;24.372;2023-02-18T05:35:47;87363.53;;;-1.20;59.28
11678;BME280;5895;41.950;24.372;2023-02-18T05:38:16;87365.56;;;-1.24;59.78
11678;BME280;5895;41.950;24.372;2023-02-18T05:40:43;87356.69;;;-1.20;58.50
11678;BME280;5895;41.950;24.372;2023-02-18T05:43:10;87359.91;;;-1.18;58.44
11678;BME280;5895;41.950;24.372;2023-02-18T05:45:37;87358.66;;;-1.14;58.49
11678;BME280;5895;41.950;24.372;2023-02-18T05:48:04;87364.25;;;-1.10;58.52
11678;BME280;5895;41.950;24.372;2023-02-18T05:50:32;87356.19;;;-1.05;58.50
11678;BME280;5895;41.950;24.372;2023-02-18T05:52:59;87367.16;;;-1.05;58.49
11678;BME280;5895;41.950;24.372;2023-02-18T05:55:28;87362.56;;;-1.01;58.95
11678;BME280;5895;41.950;24.372;2023-02-18T05:57:55;87363.88;;;-0.97;58.18
11678;BME280;5895;41.950;24.372;2023-02-18T06:00:22;87366.78;;;-0.92;58.35
11678;BME280;5895;41.950;24.372;2023-02-18T06:02:50;87365.97;;;-0.93;58.93
11678;BME280;5895;41.950;24.372;2023-02-18T06:05:17;87365.81;;;-0.91;58.79
11678;BME280;5895;41.950;24.372;2023-02-18T06:07:44;87365.22;;;-0.85;58.51
11678;BME280;5895;41.950;24.372;2023-02-18T06:10:11;87376.28;;;-0.76;58.41
11678;BME280;5895;41.950;24.372;2023-02-18T06:12:40;87373.66;;;-0.67;58.61
11678;BME280;5895;41.950;24.372;2023-02-18T06:15:08;87371.47;;;-0.54;57.75
11678;BME280;5895;41.950;24.372;2023-02-18T06:17:35;87372.19;;;-0.43;57.65
11678;BME280;5895;41.950;24.372;2023-02-18T06:20:02;87370.47;;;-0.35;57.80
11678;BME280;5895;41.950;24.372;2023-02-18T06:22:29;87356.31;;;-0.29;57.24
11678;BME280;5895;41.950;24.372;2023-02-18T06:24:56;87359.69;;;-0.20;56.87
11678;BME280;5895;41.950;24.372;2023-02-18T06:27:24;87362.44;;;-0.14;56.81
11678;BME280;5895;41.950;24.372;2023-02-18T06:29:52;87369.03;;;-0.03;56.39
11678;BME280;5895;41.950;24.372;2023-02-18T06:32:19;87371.28;;;0.08;56.29
11678;BME280;5895;41.950;24.372;2023-02-18T06:34:47;87368.63;;;0.18;55.81
11678;BME280;5895;41.950;24.372;2023-02-18T06:37:14;87367.03;;;0.25;55.61
11678;BME280;5895;41.950;24.372;2023-02-18T06:39:41;87365.78;;;0.37;55.17
11678;BME280;5895;41.950;24.372;2023-02-18T06:42:08;87365.84;;;0.53;54.51
11678;BME280;5895;41.950;24.372;2023-02-18T06:44:36;87359.97;;;0.69;53.69
11678;BME280;5895;41.950;24.372;2023-02-18T06:47:05;87362.66;;;0.84;54.17
11678;BME280;5895;41.950;24.372;2023-02-18T06:49:32;87357.44;;;1.02;53.28
11678;BME280;5895;41.950;24.372;2023-02-18T06:52:00;87362.53;;;1.26;53.28
11678;BME280;5895;41.950;24.372;2023-02-18T06:54:28;87359.78;;;1.61;52.15
11678;BME280;5895;41.950;24.372;2023-02-18T06:56:55;87370.56;;;2.03;51.56
11678;BME280;5895;41.950;24.372;2023-02-18T06:59:22;87363.03;;;2.41;50.41
11678;BME280;5895;41.950;24.372;2023-02-18T07:01:49;87348.47;;;2.73;50.30
11678;BME280;5895;41.950;24.372;2023-02-18T07:04:18;87356.84;;;3.12;49.48
11678;BME280;5895;41.950;24.372;2023-02-18T07:06:45;87360.16;;;3.44;49.38
11678;BME280;5895;41.950;24.372;2023-02-18T07:09:12;87353.41;;;3.81;48.00
11678;BME280;5895;41.950;24.372;2023-02-18T07:11:39;87348.75;;;3.99;48.45
11678;BME280;5895;41.950;24.372;2023-02-18T07:14:07;87349.19;;;4.17;47.93
11678;BME280;5895;41.950;24.372;2023-02-18T07:16:34;87344.84;;;4.33;47.99
11678;BME280;5895;41.950;24.372;2023-02-18T07:19:01;87350.59;;;4.49;47.97
11678;BME280;5895;41.950;24.372;2023-02-18T07:21:29;87351.63;;;4.70;47.70
11678;BME280;5895;41.950;24.372;2023-02-18T07:23:56;87350.81;;;4.84;47.90
11678;BME280;5895;41.950;24.372;2023-02-18T07:26:24;87341.44;;;4.98;48.00
11678;BME280;5895;41.950;24.372;2023-02-18T07:28:51;87335.72;;;5.17;47.92
11678;BME280;5895;41.950;24.372;2023-02-18T07:31:18;87339.16;;;5.46;47.69
11678;BME280;5895;41.950;24.372;2023-02-18T07:33:45;87336.06;;;5.78;48.01
11678;BME280;5895;41.950;24.372;2023-02-18T07:36:12;87346.56;;;6.05;47.63
11678;BME280;5895;41.950;24.372;2023-02-18T07:38:41;87345.03;;;6.17;47.27
11678;BME280;5895;41.950;24.372;2023-02-18T07:41:15;87339.72;;;6.19;45.99
11678;BME280;5895;41.950;24.372;2023-02-18T07:43:43;87328.22;;;6.21;47.76
11678;BME280;5895;41.950;24.372;2023-02-18T07:46:11;87334.09;;;6.36;47.85
11678;BME280;5895;41.950;24.372;2023-02-18T07:48:38;87331.25;;;6.66;48.08
11678;BME280;5895;41.950;24.372;2023-02-18T07:51:06;87331.50;;;6.84;47.32
11678;BME280;5895;41.950;24.372;2023-02-18T07:53:33;87324.88;;;7.16;47.61
11678;BME280;5895;41.950;24.372;2023-02-18T07:56:03;87331.31;;;7.54;46.61
11678;BME280;5895;41.950;24.372;2023-02-18T07:58:31;87328.56;;;7.88;46.46
11678;BME280;5895;41.950;24.372;2023-02-18T08:01:03;87325.56;;;8.18;45.80
11678;BME280;5895;41.950;24.372;2023-02-18T08:03:31;87312.84;;;8.23;46.59
11678;BME280;5895;41.950;24.372;2023-02-18T08:05:59;87318.59;;;8.18;45.84
11678;BME280;5895;41.950;24.372;2023-02-18T08:08:29;87323.78;;;8.38;45.86
11678;BME280;5895;41.950;24.372;2023-02-18T08:10:58;87316.75;;;8.72;45.13
11678;BME280;5895;41.950;24.372;2023-02-18T08:13:28;87320.66;;;8.94;45.82
11678;BME280;5895;41.950;24.372;2023-02-18T08:15:55;87315.19;;;9.16;45.55
11678;BME280;5895;41.950;24.372;2023-02-18T08:18:24;87306.97;;;9.32;44.76
11678;BME280;5895;41.950;24.372;2023-02-18T08:20:52;87309.47;;;9.45;45.05
11678;BME280;5895;41.950;24.372;2023-02-18T08:23:21;87304.19;;;9.27;44.91
11678;BME280;5895;41.950;24.372;2023-02-18T08:25:50;87315.59;;;9.13;45.69
11678;BME280;5895;41.950;24.372;2023-02-18T08:28:20;87310.00;;;9.22;45.67
11678;BME280;5895;41.950;24.372;2023-02-18T08:30:50;87310.69;;;9.36;44.63
11678;BME280;5895;41.950;24.372;2023-02-18T08:33:18;87315.00;;;9.56;45.58
11678;BME280;5895;41.950;24.372;2023-02-18T08:35:47;87315.84;;;9.49;45.48
11678;BME280;5895;41.950;24.372;2023-02-18T08:38:14;87315.56;;;9.26;45.27
11678;BME280;5895;41.950;24.372;2023-02-18T08:40:42;87319.66;;;8.95;45.49
11678;BME280;5895;41.950;24.372;2023-02-18T08:43:09;87318.53;;;8.78;45.58
11678;BME280;5895;41.950;24.372;2023-02-18T08:45:37;87310.19;;;8.76;45.23
11678;BME280;5895;41.950;24.372;2023-02-18T08:48:06;87312.97;;;8.68;44.80
11678;BME280;5895;41.950;24.372;2023-02-18T08:50:34;87314.59;;;8.62;46.33
11678;BME280;5895;41.950;24.372;2023-02-18T08:53:01;87310.63;;;8.60;45.49
11678;BME280;5895;41.950;24.372;2023-02-18T08:55:29;87310.41;;;8.61;45.39
11678;BME280;5895;41.950;24.372;2023-02-18T08:57:56;87312.59;;;8.71;45.44
11678;BME280;5895;41.950;24.372;2023-02-18T09:00:23;87307.72;;;8.94;45.09
11678;BME280;5895;41.950;24.372;2023-02-18T09:02:50;87309.66;;;9.06;45.68
11678;BME280;5895;41.950;24.372;2023-02-18T09:05:19;87311.72;;;9.35;44.55
11678;BME280;5895;41.950;24.372;2023-02-18T09:07:46;87307.34;;;9.67;44.31
11678;BME280;5895;41.950;24.372;2023-02-18T09:10:13;87305.59;;;10.18;43.86
11678;BME280;5895;41.950;24.372;2023-02-18T09:12:40;87307.41;;;10.60;43.37
11678;BME280;5895;41.950;24.372;2023-02-18T09:15:08;87306.28;;;10.93;43.37
11678;BME280;5895;41.950;24.372;2023-02-18T09:17:35;87298.94;;;11.08;43.50
11678;BME280;5895;41.950;24.372;2023-02-18T09:20:03;87300.34;;;11.41;43.57
11678;BME280;5895;41.950;24.372;2023-02-18T09:22:32;87303.59;;;11.85;42.69
11678;BME280;5895;41.950;24.372;2023-02-18T09:24:59;87304.25;;;12.34;43.11
11678;BME280;5895;41.950;24.372;2023-02-18T09:27:26;87303.03;;;12.71;42.32
11678;BME280;5895;41.950;24.372;2023-02-18T09:29:54;87302.00;;;12.73;42.67
11678;BME280;5895;41.950;24.372;2023-02-18T09:32:21;87306.00;;;12.63;42.75
11678;BME280;5895;41.950;24.372;2023-02-18T09:34:48;87301.69;;;12.57;43.50
11678;BME280;5895;41.950;24.372;2023-02-18T09:37:15;87307.22;;;12.73;42.82
11678;BME280;5895;41.950;24.372;2023-02-18T09:39:43;87305.31;;;12.80;43.29
11678;BME280;5895;41.950;24.372;2023-02-18T09:42:12;87305.41;;;12.85;42.83
11678;BME280;5895;41.950;24.372;2023-02-18T09:44:43;87304.16;;;12.99;42.82
11678;BME280;5895;41.950;24.372;2023-02-18T09:47:17;87302.13;;;13.25;41.85
11678;BME280;5895;41.950;24.372;2023-02-18T09:49:48;87309.25;;;13.69;41.56
11678;BME280;5895;41.950;24.372;2023-02-18T09:52:19;87304.47;;;14.23;41.92
11678;BME280;5895;41.950;24.372;2023-02-18T09:54:50;87314.03;;;14.63;41.23
11678;BME280;5895;41.950;24.372;2023-02-18T09:57:23;87308.94;;;14.90;39.21
11678;BME280;5895;41.950;24.372;2023-02-18T10:00:04;87306.75;;;14.99;38.13
11678;BME280;5895;41.950;24.372;2023-02-18T10:02:34;87299.19;;;15.41;41.41
11678;BME280;5895;41.950;24.372;2023-02-18T10:05:03;87299.13;;;15.58;41.60
11678;BME280;5895;41.950;24.372;2023-02-18T10:07:31;87307.53;;;15.38;41.98
11678;BME280;5895;41.950;24.372;2023-02-18T10:10:04;87305.94;;;14.98;39.12
11678;BME280;5895;41.950;24.372;2023-02-18T10:12:37;87306.97;;;14.47;42.95
11678;BME280;5895;41.950;24.372;2023-02-18T10:15:09;87306.34;;;14.11;43.14
11678;BME280;5895;41.950;24.372;2023-02-18T10:17:43;87295.59;;;13.79;43.70
11678;BME280;5895;41.950;24.372;2023-02-18T10:22:42;87292.66;;;13.35;44.33
11678;BME280;5895;41.950;24.372;2023-02-18T10:25:16;87289.97;;;13.42;41.29
11678;BME280;5895;41.950;24.372;2023-02-18T10:27:45;87288.19;;;13.59;43.55
11678;BME280;5895;41.950;24.372;2023-02-18T10:30:21;87284.50;;;13.43;41.02
11678;BME280;5895;41.950;24.372;2023-02-18T10:32:52;87286.09;;;13.44;42.88
11678;BME280;5895;41.950;24.372;2023-02-18T10:35:23;87287.28;;;13.65;41.66
11678;BME280;5895;41.950;24.372;2023-02-18T10:37:58;87284.09;;;13.63;41.28
11678;BME280;5895;41.950;24.372;2023-02-18T10:40:34;87283.91;;;14.10;40.88
11678;BME280;5895;41.950;24.372;2023-02-18T10:43:13;87275.88;;;14.79;39.60
11678;BME280;5895;41.950;24.372;2023-02-18T10:45:49;87271.50;;;15.23;40.08
11678;BME280;5895;41.950;24.372;2023-02-18T10:48:33;87267.28;;;15.61;38.00
11678;BME280;5895;41.950;24.372;2023-02-18T10:51:13;87267.75;;;16.02;38.89
11678;BME280;5895;41.950;24.372;2023-02-18T10:53:43;87270.91;;;16.31;41.43
11678;BME280;5895;41.950;24.372;2023-02-18T10:56:31;87268.69;;;16.18;37.44
11678;BME280;5895;41.950;24.372;2023-02-18T10:59:01;87266.75;;;16.08;40.76
11678;BME280;5895;41.950;24.372;2023-02-18T11:01:31;87270.00;;;16.20;42.21
11678;BME280;5895;41.950;24.372;2023-02-18T11:04:12;87257.63;;;16.43;38.51
11678;BME280;5895;41.950;24.372;2023-02-18T11:06:42;87251.78;;;16.30;42.63
11678;BME280;5895;41.950;24.372;2023-02-18T11:09:29;87259.84;;;15.97;38.11
11678;BME280;5895;41.950;24.372;2023-02-18T11:12:01;87264.09;;;15.59;40.92
11678;BME280;5895;41.950;24.372;2023-02-18T11:14:41;87255.16;;;15.11;40.48
11678;BME280;5895;41.950;24.372;2023-02-18T11:17:15;87258.06;;;14.93;41.09
11678;BME280;5895;41.950;24.372;2023-02-18T11:19:51;87250.06;;;14.82;41.47
11678;BME280;5895;41.950;24.372;2023-02-18T11:22:21;87241.19;;;14.84;43.97
11678;BME280;5895;41.950;24.372;2023-02-18T11:24:53;87266.69;;;14.76;42.91
11678;BME280;5895;41.950;24.372;2023-02-18T11:27:26;87240.75;;;14.53;42.83
11678;BME280;5895;41.950;24.372;2023-02-18T11:29:58;87240.88;;;14.29;43.86
11678;BME280;5895;41.950;24.372;2023-02-18T11:32:27;87243.72;;;14.11;45.52
11678;BME280;5895;41.950;24.372;2023-02-18T11:34:55;87244.66;;;14.05;45.54
11678;BME280;5895;41.950;24.372;2023-02-18T11:37:23;87228.41;;;14.15;45.48
11678;BME280;5895;41.950;24.372;2023-02-18T11:39:53;87229.97;;;14.33;44.07
11678;BME280;5895;41.950;24.372;2023-02-18T11:42:23;87235.22;;;14.66;43.05
11678;BME280;5895;41.950;24.372;2023-02-18T11:44:53;87223.53;;;14.91;43.32
11678;BME280;5895;41.950;24.372;2023-02-18T11:47:24;87228.28;;;14.94;43.40
11678;BME280;5895;41.950;24.372;2023-02-18T11:50:13;87224.19;;;15.03;41.39
11678;BME280;5895;41.950;24.372;2023-02-18T11:52:44;87214.25;;;15.00;44.13
11678;BME280;5895;41.950;24.372;2023-02-18T11:55:15;87211.63;;;15.00;42.61
11678;BME280;5895;41.950;24.372;2023-02-18T11:57:46;87217.16;;;15.25;43.19
11678;BME280;5895;41.950;24.372;2023-02-18T12:00:19;87202.31;;;15.53;43.21
11678;BME280;5895;41.950;24.372;2023-02-18T12:02:48;87209.13;;;15.54;43.63
11678;BME280;5895;41.950;24.372;2023-02-18T12:05:18;87216.19;;;15.31;42.93
11678;BME280;5895;41.950;24.372;2023-02-18T12:07:49;87203.34;;;15.52;42.95
11678;BME280;5895;41.950;24.372;2023-02-18T12:10:21;87197.47;;;15.40;41.84
11678;BME280;5895;41.950;24.372;2023-02-18T12:12:54;87200.50;;;14.88;41.62
11678;BME280;5895;41.950;24.372;2023-02-18T12:15:31;87200.56;;;14.37;42.61
11678;BME280;5895;41.950;24.372;2023-02-18T12:18:21;87208.47;;;14.25;42.43
11678;BME280;5895;41.950;24.372;2023-02-18T12:23:57;87206.78;;;14.19;42.29
11678;BME280;5895;41.950;24.372;2023-02-18T12:26:33;87211.31;;;14.24;43.27
11678;BME280;5895;41.950;24.372;2023-02-18T12:29:27;87203.72;;;14.22;40.47
11678;BME280;5895;41.950;24.372;2023-02-18T12:32:14;87203.09;;;14.15;41.50
11678;BME280;5895;41.950;24.372;2023-02-18T12:35:02;87205.91;;;13.97;42.10
11678;BME280;5895;41.950;24.372;2023-02-18T12:37:56;87202.28;;;13.81;41.28
11678;BME280;5895;41.950;24.372;2023-02-18T12:40:43;87211.75;;;13.70;41.66
11678;BME280;5895;41.950;24.372;2023-02-18T12:43:19;87202.72;;;13.61;43.42
11678;BME280;5895;41.950;24.372;2023-02-18T12:46:10;87192.44;;;13.55;42.40
11678;BME280;5895;41.950;24.372;2023-02-18T12:48:56;87195.75;;;13.50;42.50
11678;BME280;5895;41.950;24.372;2023-02-18T12:51:32;87190.13;;;13.41;43.55
11678;BME280;5895;41.950;24.372;2023-02-18T12:57:13;87185.16;;;13.57;44.09
11678;BME280;5895;41.950;24.372;2023-02-18T12:59:56;87179.53;;;13.93;42.59
11678;BME280;5895;41.950;24.372;2023-02-18T13:02:53;87175.72;;;14.51;41.94
11678;BME280;5895;41.950;24.372;2023-02-18T13:05:30;87172.78;;;14.87;42.71
11678;BME280;5895;41.950;24.372;2023-02-18T13:08:09;87169.50;;;15.18;41.00
11678;BME280;5895;41.950;24.372;2023-02-18T13:10:55;87161.66;;;15.40;42.12
11678;BME280;5895;41.950;24.372;2023-02-18T13:13:30;87153.28;;;15.38;41.76
11678;BME280;5895;41.950;24.372;2023-02-18T13:16:02;87158.00;;;15.41;42.13
11678;BME280;5895;41.950;24.372;2023-02-18T13:18:34;87156.81;;;15.54;42.86
11678;BME280;5895;41.950;24.372;2023-02-18T13:21:05;87166.13;;;15.67;43.12
11678;BME280;5895;41.950;24.372;2023-02-18T13:23:35;87168.00;;;15.71;42.76
11678;BME280;5895;41.950;24.372;2023-02-18T13:26:05;87167.72;;;15.68;43.01
11678;BME280;5895;41.950;24.372;2023-02-18T13:28:39;87172.56;;;15.59;41.73
11678;BME280;5895;41.950;24.372;2023-02-18T13:31:18;87179.34;;;15.55;41.76
11678;BME280;5895;41.950;24.372;2023-02-18T13:33:56;87175.09;;;15.49;41.15